sensor_id;sensor_type;location;lat;lon;timestamp;P1;durP1;ratioP1;P2;durP2;ratioP2
11539;SDS011;5826;54.756;9.192;2022-10-28T00:02:14;5.70;;;3.30;;
11539;SDS011;5826;54.756;9.192;2022-10-28T00:04:40;5.40;;;4.20;;
11539;SDS011;5826;54.756;9.192;2022-10-28T00:07:06;4.10;;;3.70;;
11539;SDS011;5826;54.756;9.192;2022-10-28T00:09:31;5.68;;;3.30;;
11539;SDS011;5826;54.756;9.192;2022-10-28T00:11:56;4.63;;;3.15;;
11539;SDS011;5826;54.756;9.192;2022-10-28T00:14:22;3.25;;;2.95;;
11539;SDS011;5826;54.756;9.192;2022-10-28T00:16:48;3.60;;;3.22;;
11539;SDS011;5826;54.756;9.192;2022-10-28T00:19:14;4.38;;;3.40;;
11539;SDS011;5826;54.756;9.192;2022-10-28T00:21:40;4.30;;;3.83;;
11539;SDS011;5826;54.756;9.192;2022-10-28T00:24:07;4.85;;;3.30;;
11539;SDS011;5826;54.756;9.192;2022-10-28T00:26:34;3.70;;;3.00;;
11539;SDS011;5826;54.756;9.192;2022-10-28T00:29:03;3.85;;;3.30;;
11539;SDS011;5826;54.756;9.192;2022-10-28T00:31:30;7.40;;;4.97;;
11539;SDS011;5826;54.756;9.192;2022-10-28T00:33:57;4.82;;;3.30;;
11539;SDS011;5826;54.756;9.192;2022-10-28T00:36:26;5.15;;;3.60;;
11539;SDS011;5826;54.756;9.192;2022-10-28T00:38:57;4.07;;;2.92;;
11539;SDS011;5826;54.756;9.192;2022-10-28T00:41:27;6.80;;;4.88;;
11539;SDS011;5826;54.756;9.192;2022-10-28T00:43:59;4.85;;;3.50;;
11539;SDS011;5826;54.756;9.192;2022-10-28T00:46:40;4.82;;;3.80;;
11539;SDS011;5826;54.756;9.192;2022-10-28T00:49:11;6.40;;;4.65;;
11539;SDS011;5826;54.756;9.192;2022-10-28T00:51:42;7.32;;;4.28;;
11539;SDS011;5826;54.756;9.192;2022-10-28T00:54:09;6.38;;;4.85;;
11539;SDS011;5826;54.756;9.192;2022-10-28T00:56:36;4.55;;;3.83;;
11539;SDS011;5826;54.756;9.192;2022-10-28T00:59:10;6.18;;;4.78;;
11539;SDS011;5826;54.756;9.192;2022-10-28T01:01:42;4.05;;;3.53;;
11539;SDS011;5826;54.756;9.192;2022-10-28T01:04:08;4.30;;;3.58;;
11539;SDS011;5826;54.756;9.192;2022-10-28T01:06:34;5.70;;;3.80;;
11539;SDS011;5826;54.756;9.192;2022-10-28T01:09:00;5.03;;;3.88;;
11539;SDS011;5826;54.756;9.192;2022-10-28T01:11:30;5.30;;;3.65;;
11539;SDS011;5826;54.756;9.192;2022-10-28T01:17:00;4.63;;;3.40;;
11539;SDS011;5826;54.756;9.192;2022-10-28T01:22:41;3.67;;;3.03;;
11539;SDS011;5826;54.756;9.192;2022-10-28T01:25:37;3.35;;;3.00;;
11539;SDS011;5826;54.756;9.192;2022-10-28T01:36:57;5.20;;;3.25;;
11539;SDS011;5826;54.756;9.192;2022-10-28T01:45:07;4.20;;;3.70;;
11539;SDS011;5826;54.756;9.192;2022-10-28T01:47:36;3.67;;;3.38;;
11539;SDS011;5826;54.756;9.192;2022-10-28T01:50:42;4.18;;;3.30;;
11539;SDS011;5826;54.756;9.192;2022-10-28T01:53:02;4.10;;;3.17;;
11539;SDS011;5826;54.756;9.192;2022-10-28T01:55:34;5.82;;;3.90;;
11539;SDS011;5826;54.756;9.192;2022-10-28T01:58:03;3.70;;;3.13;;
11539;SDS011;5826;54.756;9.192;2022-10-28T02:00:30;4.15;;;3.33;;
11539;SDS011;5826;54.756;9.192;2022-10-28T02:02:57;3.38;;;3.08;;
11539;SDS011;5826;54.756;9.192;2022-10-28T02:05:45;4.00;;;3.25;;
11539;SDS011;5826;54.756;9.192;2022-10-28T02:11:10;4.18;;;3.60;;
11539;SDS011;5826;54.756;9.192;2022-10-28T02:16:29;5.80;;;3.75;;
11539;SDS011;5826;54.756;9.192;2022-10-28T02:19:31;4.68;;;3.90;;
11539;SDS011;5826;54.756;9.192;2022-10-28T02:22:22;3.97;;;3.38;;
11539;SDS011;5826;54.756;9.192;2022-10-28T02:24:54;4.15;;;3.75;;
11539;SDS011;5826;54.756;9.192;2022-10-28T02:27:51;4.68;;;3.90;;
11539;SDS011;5826;54.756;9.192;2022-10-28T02:30:19;4.60;;;3.60;;
11539;SDS011;5826;54.756;9.192;2022-10-28T02:32:49;5.97;;;3.88;;
11539;SDS011;5826;54.756;9.192;2022-10-28T02:35:19;4.47;;;3.63;;
11539;SDS011;5826;54.756;9.192;2022-10-28T02:37:52;5.45;;;3.63;;
11539;SDS011;5826;54.756;9.192;2022-10-28T02:40:20;4.45;;;3.65;;
11539;SDS011;5826;54.756;9.192;2022-10-28T02:42:51;5.57;;;3.90;;
11539;SDS011;5826;54.756;9.192;2022-10-28T02:45:21;3.55;;;3.25;;
11539;SDS011;5826;54.756;9.192;2022-10-28T02:47:52;4.20;;;3.80;;
11539;SDS011;5826;54.756;9.192;2022-10-28T02:50:23;5.35;;;3.78;;
11539;SDS011;5826;54.756;9.192;2022-10-28T02:52:56;6.68;;;4.38;;
11539;SDS011;5826;54.756;9.192;2022-10-28T02:55:24;4.38;;;3.70;;
11539;SDS011;5826;54.756;9.192;2022-10-28T02:57:56;6.03;;;4.38;;
11539;SDS011;5826;54.756;9.192;2022-10-28T03:00:22;5.05;;;3.78;;
11539;SDS011;5826;54.756;9.192;2022-10-28T03:02:48;4.60;;;3.95;;
11539;SDS011;5826;54.756;9.192;2022-10-28T03:05:15;4.40;;;3.78;;
11539;SDS011;5826;54.756;9.192;2022-10-28T03:07:41;5.10;;;3.83;;
11539;SDS011;5826;54.756;9.192;2022-10-28T03:10:07;6.40;;;4.85;;
11539;SDS011;5826;54.756;9.192;2022-10-28T03:12:33;4.82;;;4.30;;
11539;SDS011;5826;54.756;9.192;2022-10-28T03:14:59;5.47;;;3.83;;
11539;SDS011;5826;54.756;9.192;2022-10-28T03:17:25;7.07;;;4.20;;
11539;SDS011;5826;54.756;9.192;2022-10-28T03:19:51;6.43;;;4.35;;
11539;SDS011;5826;54.756;9.192;2022-10-28T03:22:16;7.65;;;6.22;;
11539;SDS011;5826;54.756;9.192;2022-10-28T03:24:42;6.10;;;4.68;;
11539;SDS011;5826;54.756;9.192;2022-10-28T03:27:07;6.57;;;4.90;;
11539;SDS011;5826;54.756;9.192;2022-10-28T03:29:33;6.55;;;4.97;;
11539;SDS011;5826;54.756;9.192;2022-10-28T03:31:58;6.00;;;4.40;;
11539;SDS011;5826;54.756;9.192;2022-10-28T03:34:23;6.65;;;4.38;;
11539;SDS011;5826;54.756;9.192;2022-10-28T03:36:49;7.68;;;5.57;;
11539;SDS011;5826;54.756;9.192;2022-10-28T03:39:14;6.60;;;5.30;;
11539;SDS011;5826;54.756;9.192;2022-10-28T03:41:40;7.32;;;5.15;;
11539;SDS011;5826;54.756;9.192;2022-10-28T03:44:06;7.75;;;5.45;;
11539;SDS011;5826;54.756;9.192;2022-10-28T03:46:31;6.10;;;5.38;;
11539;SDS011;5826;54.756;9.192;2022-10-28T03:48:57;9.93;;;6.72;;
11539;SDS011;5826;54.756;9.192;2022-10-28T03:51:22;6.05;;;5.43;;
11539;SDS011;5826;54.756;9.192;2022-10-28T03:53:48;6.43;;;5.18;;
11539;SDS011;5826;54.756;9.192;2022-10-28T03:56:13;6.40;;;5.05;;
11539;SDS011;5826;54.756;9.192;2022-10-28T03:58:39;5.57;;;4.32;;
11539;SDS011;5826;54.756;9.192;2022-10-28T04:01:04;7.25;;;5.40;;
11539;SDS011;5826;54.756;9.192;2022-10-28T04:03:30;6.18;;;5.07;;
11539;SDS011;5826;54.756;9.192;2022-10-28T04:05:55;5.97;;;4.85;;
11539;SDS011;5826;54.756;9.192;2022-10-28T04:08:21;5.68;;;5.07;;
11539;SDS011;5826;54.756;9.192;2022-10-28T04:10:46;5.65;;;5.05;;
11539;SDS011;5826;54.756;9.192;2022-10-28T04:13:12;5.57;;;4.57;;
11539;SDS011;5826;54.756;9.192;2022-10-28T04:15:39;5.63;;;4.60;;
11539;SDS011;5826;54.756;9.192;2022-10-28T04:18:04;6.82;;;4.55;;
11539;SDS011;5826;54.756;9.192;2022-10-28T04:20:30;4.90;;;4.20;;
11539;SDS011;5826;54.756;9.192;2022-10-28T04:22:56;4.93;;;4.00;;
11539;SDS011;5826;54.756;9.192;2022-10-28T04:25:22;6.30;;;4.60;;
11539;SDS011;5826;54.756;9.192;2022-10-28T04:27:49;5.13;;;4.40;;
11539;SDS011;5826;54.756;9.192;2022-10-28T04:30:14;5.53;;;4.40;;
11539;SDS011;5826;54.756;9.192;2022-10-28T04:32:40;4.60;;;4.20;;
11539;SDS011;5826;54.756;9.192;2022-10-28T04:35:06;4.32;;;3.92;;
11539;SDS011;5826;54.756;9.192;2022-10-28T04:37:33;5.18;;;4.13;;
11539;SDS011;5826;54.756;9.192;2022-10-28T04:39:59;4.63;;;3.72;;
11539;SDS011;5826;54.756;9.192;2022-10-28T04:42:24;5.70;;;4.10;;
11539;SDS011;5826;54.756;9.192;2022-10-28T04:44:50;5.50;;;4.60;;
11539;SDS011;5826;54.756;9.192;2022-10-28T04:47:16;5.05;;;4.47;;
11539;SDS011;5826;54.756;9.192;2022-10-28T04:49:42;5.13;;;4.63;;
11539;SDS011;5826;54.756;9.192;2022-10-28T04:52:07;5.07;;;4.57;;
11539;SDS011;5826;54.756;9.192;2022-10-28T04:54:33;5.28;;;4.75;;
11539;SDS011;5826;54.756;9.192;2022-10-28T04:56:59;4.65;;;4.20;;
11539;SDS011;5826;54.756;9.192;2022-10-28T04:59:24;4.63;;;4.10;;
11539;SDS011;5826;54.756;9.192;2022-10-28T05:01:50;5.15;;;4.65;;
11539;SDS011;5826;54.756;9.192;2022-10-28T05:04:15;5.30;;;4.80;;
11539;SDS011;5826;54.756;9.192;2022-10-28T05:06:41;5.32;;;4.15;;
11539;SDS011;5826;54.756;9.192;2022-10-28T05:09:06;7.28;;;4.82;;
11539;SDS011;5826;54.756;9.192;2022-10-28T05:11:32;6.13;;;4.65;;
11539;SDS011;5826;54.756;9.192;2022-10-28T05:13:57;5.97;;;5.20;;
11539;SDS011;5826;54.756;9.192;2022-10-28T05:16:23;5.28;;;4.78;;
11539;SDS011;5826;54.756;9.192;2022-10-28T05:18:48;5.20;;;4.70;;
11539;SDS011;5826;54.756;9.192;2022-10-28T05:21:13;5.03;;;4.32;;
11539;SDS011;5826;54.756;9.192;2022-10-28T05:23:39;5.10;;;4.60;;
11539;SDS011;5826;54.756;9.192;2022-10-28T05:26:04;7.47;;;4.93;;
11539;SDS011;5826;54.756;9.192;2022-10-28T05:28:30;5.35;;;4.45;;
11539;SDS011;5826;54.756;9.192;2022-10-28T05:30:56;5.82;;;5.10;;
11539;SDS011;5826;54.756;9.192;2022-10-28T05:33:21;5.90;;;4.57;;
11539;SDS011;5826;54.756;9.192;2022-10-28T05:35:47;5.90;;;4.70;;
11539;SDS011;5826;54.756;9.192;2022-10-28T05:38:12;5.68;;;4.82;;
11539;SDS011;5826;54.756;9.192;2022-10-28T05:40:38;5.18;;;4.55;;
11539;SDS011;5826;54.756;9.192;2022-10-28T05:43:03;5.70;;;4.88;;
11539;SDS011;5826;54.756;9.192;2022-10-28T05:45:29;5.03;;;4.15;;
11539;SDS011;5826;54.756;9.192;2022-10-28T05:47:55;7.85;;;4.97;;
11539;SDS011;5826;54.756;9.192;2022-10-28T05:50:21;5.00;;;4.50;;
11539;SDS011;5826;54.756;9.192;2022-10-28T05:52:50;5.25;;;4.28;;
11539;SDS011;5826;54.756;9.192;2022-10-28T05:55:18;5.30;;;4.30;;
11539;SDS011;5826;54.756;9.192;2022-10-28T05:57:45;5.03;;;4.43;;
11539;SDS011;5826;54.756;9.192;2022-10-28T06:00:11;8.30;;;5.55;;
11539;SDS011;5826;54.756;9.192;2022-10-28T06:02:38;6.28;;;4.80;;
11539;SDS011;5826;54.756;9.192;2022-10-28T06:05:04;6.43;;;4.45;;
11539;SDS011;5826;54.756;9.192;2022-10-28T06:07:29;5.43;;;4.50;;
11539;SDS011;5826;54.756;9.192;2022-10-28T06:09:55;5.50;;;4.78;;
11539;SDS011;5826;54.756;9.192;2022-10-28T06:12:20;6.90;;;4.78;;
11539;SDS011;5826;54.756;9.192;2022-10-28T06:14:46;5.97;;;4.30;;
11539;SDS011;5826;54.756;9.192;2022-10-28T06:17:11;6.43;;;4.80;;
11539;SDS011;5826;54.756;9.192;2022-10-28T06:19:37;6.25;;;4.97;;
11539;SDS011;5826;54.756;9.192;2022-10-28T06:22:02;4.65;;;4.22;;
11539;SDS011;5826;54.756;9.192;2022-10-28T06:24:28;4.90;;;4.40;;
11539;SDS011;5826;54.756;9.192;2022-10-28T06:26:53;5.80;;;4.32;;
11539;SDS011;5826;54.756;9.192;2022-10-28T06:29:19;5.72;;;4.95;;
11539;SDS011;5826;54.756;9.192;2022-10-28T06:31:45;5.07;;;4.22;;
11539;SDS011;5826;54.756;9.192;2022-10-28T06:34:11;4.63;;;3.90;;
11539;SDS011;5826;54.756;9.192;2022-10-28T06:36:37;4.55;;;4.10;;
11539;SDS011;5826;54.756;9.192;2022-10-28T06:39:03;4.00;;;3.60;;
11539;SDS011;5826;54.756;9.192;2022-10-28T06:41:29;5.47;;;4.20;;
11539;SDS011;5826;54.756;9.192;2022-10-28T06:43:55;4.78;;;4.30;;
11539;SDS011;5826;54.756;9.192;2022-10-28T06:46:20;4.57;;;4.18;;
11539;SDS011;5826;54.756;9.192;2022-10-28T06:48:46;6.00;;;4.65;;
11539;SDS011;5826;54.756;9.192;2022-10-28T06:51:11;5.82;;;4.40;;
11539;SDS011;5826;54.756;9.192;2022-10-28T06:53:37;5.10;;;4.53;;
11539;SDS011;5826;54.756;9.192;2022-10-28T06:56:03;5.63;;;5.03;;
11539;SDS011;5826;54.756;9.192;2022-10-28T06:58:28;6.35;;;4.68;;
11539;SDS011;5826;54.756;9.192;2022-10-28T07:00:54;5.05;;;4.47;;
11539;SDS011;5826;54.756;9.192;2022-10-28T07:03:19;6.60;;;4.50;;
11539;SDS011;5826;54.756;9.192;2022-10-28T07:05:45;4.75;;;4.30;;
11539;SDS011;5826;54.756;9.192;2022-10-28T07:08:13;5.10;;;4.38;;
11539;SDS011;5826;54.756;9.192;2022-10-28T07:10:38;5.55;;;4.78;;
11539;SDS011;5826;54.756;9.192;2022-10-28T07:13:04;4.97;;;4.47;;
11539;SDS011;5826;54.756;9.192;2022-10-28T07:15:30;6.30;;;4.55;;
11539;SDS011;5826;54.756;9.192;2022-10-28T07:17:56;5.53;;;4.68;;
11539;SDS011;5826;54.756;9.192;2022-10-28T07:20:23;5.78;;;4.35;;
11539;SDS011;5826;54.756;9.192;2022-10-28T07:22:56;5.68;;;4.70;;
11539;SDS011;5826;54.756;9.192;2022-10-28T07:25:26;5.22;;;4.13;;
11539;SDS011;5826;54.756;9.192;2022-10-28T07:27:53;5.13;;;4.10;;
11539;SDS011;5826;54.756;9.192;2022-10-28T07:30:20;5.10;;;3.83;;
11539;SDS011;5826;54.756;9.192;2022-10-28T07:32:45;6.05;;;4.47;;
11539;SDS011;5826;54.756;9.192;2022-10-28T07:35:11;4.53;;;4.13;;
11539;SDS011;5826;54.756;9.192;2022-10-28T07:37:37;4.95;;;3.70;;
11539;SDS011;5826;54.756;9.192;2022-10-28T07:40:03;4.70;;;4.13;;
11539;SDS011;5826;54.756;9.192;2022-10-28T07:42:29;4.93;;;4.25;;
11539;SDS011;5826;54.756;9.192;2022-10-28T07:44:56;5.10;;;3.72;;
11539;SDS011;5826;54.756;9.192;2022-10-28T07:47:22;4.85;;;3.90;;
11539;SDS011;5826;54.756;9.192;2022-10-28T07:49:47;3.88;;;3.50;;
11539;SDS011;5826;54.756;9.192;2022-10-28T07:52:13;4.45;;;4.05;;
11539;SDS011;5826;54.756;9.192;2022-10-28T07:54:38;3.70;;;3.40;;
11539;SDS011;5826;54.756;9.192;2022-10-28T07:57:04;4.72;;;4.32;;
11539;SDS011;5826;54.756;9.192;2022-10-28T07:59:29;4.43;;;4.03;;
11539;SDS011;5826;54.756;9.192;2022-10-28T08:01:55;4.28;;;3.50;;
11539;SDS011;5826;54.756;9.192;2022-10-28T08:04:21;4.03;;;3.65;;
11539;SDS011;5826;54.756;9.192;2022-10-28T08:06:46;4.15;;;3.53;;
11539;SDS011;5826;54.756;9.192;2022-10-28T08:09:12;4.30;;;3.47;;
11539;SDS011;5826;54.756;9.192;2022-10-28T08:11:37;5.50;;;3.88;;
11539;SDS011;5826;54.756;9.192;2022-10-28T08:14:03;4.13;;;3.53;;
11539;SDS011;5826;54.756;9.192;2022-10-28T08:16:28;4.93;;;3.63;;
11539;SDS011;5826;54.756;9.192;2022-10-28T08:18:54;4.28;;;3.88;;
11539;SDS011;5826;54.756;9.192;2022-10-28T08:21:21;4.57;;;3.50;;
11539;SDS011;5826;54.756;9.192;2022-10-28T08:23:47;4.65;;;3.55;;
11539;SDS011;5826;54.756;9.192;2022-10-28T08:26:13;4.72;;;3.58;;
11539;SDS011;5826;54.756;9.192;2022-10-28T08:28:40;4.88;;;3.63;;
11539;SDS011;5826;54.756;9.192;2022-10-28T08:31:06;4.85;;;3.65;;
11539;SDS011;5826;54.756;9.192;2022-10-28T08:33:34;4.25;;;3.42;;
11539;SDS011;5826;54.756;9.192;2022-10-28T08:36:00;3.58;;;3.22;;
11539;SDS011;5826;54.756;9.192;2022-10-28T08:38:26;3.47;;;3.00;;
11539;SDS011;5826;54.756;9.192;2022-10-28T08:46:16;3.15;;;2.85;;
11539;SDS011;5826;54.756;9.192;2022-10-28T08:49:07;3.30;;;3.00;;
11539;SDS011;5826;54.756;9.192;2022-10-28T08:54:19;3.13;;;2.45;;
11539;SDS011;5826;54.756;9.192;2022-10-28T08:57:30;2.83;;;2.55;;
11539;SDS011;5826;54.756;9.192;2022-10-28T08:59:56;2.92;;;2.60;;
11539;SDS011;5826;54.756;9.192;2022-10-28T09:02:24;2.50;;;2.30;;
11539;SDS011;5826;54.756;9.192;2022-10-28T09:07:39;2.72;;;2.53;;
11539;SDS011;5826;54.756;9.192;2022-10-28T09:10:05;2.90;;;2.40;;
11539;SDS011;5826;54.756;9.192;2022-10-28T09:12:46;2.55;;;2.30;;
11539;SDS011;5826;54.756;9.192;2022-10-28T09:15:35;3.10;;;2.30;;
11539;SDS011;5826;54.756;9.192;2022-10-28T09:18:19;3.17;;;2.63;;
11539;SDS011;5826;54.756;9.192;2022-10-28T09:20:55;2.42;;;2.22;;
11539;SDS011;5826;54.756;9.192;2022-10-28T09:23:28;2.15;;;1.95;;
11539;SDS011;5826;54.756;9.192;2022-10-28T09:26:07;2.60;;;2.20;;
11539;SDS011;5826;54.756;9.192;2022-10-28T09:31:56;3.40;;;2.47;;
11539;SDS011;5826;54.756;9.192;2022-10-28T09:37:22;2.05;;;1.80;;
11539;SDS011;5826;54.756;9.192;2022-10-28T09:39:53;3.03;;;2.22;;
11539;SDS011;5826;54.756;9.192;2022-10-28T09:42:29;2.22;;;2.03;;
11539;SDS011;5826;54.756;9.192;2022-10-28T09:45:02;2.20;;;1.98;;
11539;SDS011;5826;54.756;9.192;2022-10-28T09:47:39;2.03;;;1.70;;
11539;SDS011;5826;54.756;9.192;2022-10-28T09:50:18;2.63;;;2.42;;
11539;SDS011;5826;54.756;9.192;2022-10-28T09:52:57;2.03;;;1.75;;
11539;SDS011;5826;54.756;9.192;2022-10-28T09:55:41;2.13;;;1.92;;
11539;SDS011;5826;54.756;9.192;2022-10-28T09:58:07;4.00;;;2.83;;
11539;SDS011;5826;54.756;9.192;2022-10-28T10:00:35;3.58;;;3.08;;
11539;SDS011;5826;54.756;9.192;2022-10-28T10:03:02;3.05;;;2.40;;
11539;SDS011;5826;54.756;9.192;2022-10-28T10:05:29;5.28;;;3.42;;
11539;SDS011;5826;54.756;9.192;2022-10-28T10:07:58;2.40;;;2.20;;
11539;SDS011;5826;54.756;9.192;2022-10-28T10:10:30;3.70;;;3.30;;
11539;SDS011;5826;54.756;9.192;2022-10-28T10:13:01;2.53;;;2.33;;
11539;SDS011;5826;54.756;9.192;2022-10-28T10:15:34;3.20;;;2.90;;
11539;SDS011;5826;54.756;9.192;2022-10-28T10:18:03;3.45;;;2.90;;
11539;SDS011;5826;54.756;9.192;2022-10-28T10:23:25;3.67;;;3.28;;
11539;SDS011;5826;54.756;9.192;2022-10-28T10:26:02;3.67;;;3.03;;
11539;SDS011;5826;54.756;9.192;2022-10-28T10:28:30;5.25;;;4.43;;
11539;SDS011;5826;54.756;9.192;2022-10-28T10:30:58;3.67;;;3.38;;
11539;SDS011;5826;54.756;9.192;2022-10-28T10:33:27;6.13;;;3.80;;
11539;SDS011;5826;54.756;9.192;2022-10-28T10:35:58;6.20;;;4.43;;
11539;SDS011;5826;54.756;9.192;2022-10-28T10:38:27;6.15;;;4.55;;
11539;SDS011;5826;54.756;9.192;2022-10-28T10:40:53;6.55;;;4.88;;
11539;SDS011;5826;54.756;9.192;2022-10-28T10:43:21;7.00;;;4.85;;
11539;SDS011;5826;54.756;9.192;2022-10-28T10:48:22;4.57;;;4.15;;
11539;SDS011;5826;54.756;9.192;2022-10-28T10:50:48;4.82;;;3.88;;
11539;SDS011;5826;54.756;9.192;2022-10-28T10:53:27;4.55;;;3.60;;
11539;SDS011;5826;54.756;9.192;2022-10-28T10:55:56;4.43;;;3.58;;
11539;SDS011;5826;54.756;9.192;2022-10-28T10:58:27;8.18;;;5.90;;
11539;SDS011;5826;54.756;9.192;2022-10-28T11:01:00;6.55;;;4.80;;
11539;SDS011;5826;54.756;9.192;2022-10-28T11:05:56;9.77;;;5.10;;
11539;SDS011;5826;54.756;9.192;2022-10-28T11:08:34;8.15;;;5.00;;
11539;SDS011;5826;54.756;9.192;2022-10-28T11:11:07;5.55;;;3.95;;
11539;SDS011;5826;54.756;9.192;2022-10-28T11:13:33;6.82;;;4.05;;
11539;SDS011;5826;54.756;9.192;2022-10-28T11:16:03;6.03;;;3.83;;
11539;SDS011;5826;54.756;9.192;2022-10-28T11:18:37;3.97;;;3.38;;
11539;SDS011;5826;54.756;9.192;2022-10-28T11:26:28;8.93;;;4.95;;
11539;SDS011;5826;54.756;9.192;2022-10-28T11:29:04;6.50;;;4.15;;
11539;SDS011;5826;54.756;9.192;2022-10-28T11:34:27;10.82;;;5.60;;
11539;SDS011;5826;54.756;9.192;2022-10-28T11:45:51;10.18;;;5.57;;
11539;SDS011;5826;54.756;9.192;2022-10-28T11:51:58;8.95;;;5.03;;
11539;SDS011;5826;54.756;9.192;2022-10-28T11:57:37;4.15;;;3.55;;
11539;SDS011;5826;54.756;9.192;2022-10-28T12:03:10;6.82;;;4.68;;
11539;SDS011;5826;54.756;9.192;2022-10-28T12:05:43;10.27;;;5.88;;
11539;SDS011;5826;54.756;9.192;2022-10-28T12:11:02;10.05;;;5.65;;
11539;SDS011;5826;54.756;9.192;2022-10-28T12:13:51;8.40;;;5.47;;
11539;SDS011;5826;54.756;9.192;2022-10-28T12:16:29;6.70;;;4.70;;
11539;SDS011;5826;54.756;9.192;2022-10-28T12:19:04;7.30;;;4.93;;
11539;SDS011;5826;54.756;9.192;2022-10-28T12:21:49;8.65;;;4.82;;
11539;SDS011;5826;54.756;9.192;2022-10-28T12:24:25;7.25;;;5.05;;
11539;SDS011;5826;54.756;9.192;2022-10-28T12:26:55;9.43;;;5.75;;
11539;SDS011;5826;54.756;9.192;2022-10-28T12:29:24;6.53;;;4.78;;
11539;SDS011;5826;54.756;9.192;2022-10-28T12:31:57;9.13;;;5.10;;
11539;SDS011;5826;54.756;9.192;2022-10-28T12:34:31;8.52;;;4.78;;
11539;SDS011;5826;54.756;9.192;2022-10-28T12:37:24;12.60;;;5.60;;
11539;SDS011;5826;54.756;9.192;2022-10-28T12:39:56;9.27;;;5.22;;
11539;SDS011;5826;54.756;9.192;2022-10-28T12:42:44;8.18;;;4.57;;
11539;SDS011;5826;54.756;9.192;2022-10-28T12:45:14;7.50;;;4.97;;
11539;SDS011;5826;54.756;9.192;2022-10-28T12:47:50;12.30;;;4.75;;
11539;SDS011;5826;54.756;9.192;2022-10-28T12:50:24;7.80;;;5.30;;
11539;SDS011;5826;54.756;9.192;2022-10-28T12:53:13;8.52;;;6.07;;
11539;SDS011;5826;54.756;9.192;2022-10-28T12:55:51;8.60;;;5.63;;
11539;SDS011;5826;54.756;9.192;2022-10-28T13:00:57;6.90;;;5.50;;
11539;SDS011;5826;54.756;9.192;2022-10-28T13:03:31;6.97;;;4.68;;
11539;SDS011;5826;54.756;9.192;2022-10-28T13:06:07;7.68;;;4.75;;
11539;SDS011;5826;54.756;9.192;2022-10-28T13:19:33;7.55;;;5.03;;
11539;SDS011;5826;54.756;9.192;2022-10-28T13:27:16;12.43;;;6.50;;
11539;SDS011;5826;54.756;9.192;2022-10-28T13:29:47;8.57;;;4.85;;
11539;SDS011;5826;54.756;9.192;2022-10-28T13:34:59;10.95;;;5.50;;
11539;SDS011;5826;54.756;9.192;2022-10-28T13:37:33;8.60;;;5.18;;
11539;SDS011;5826;54.756;9.192;2022-10-28T13:40:00;7.97;;;4.55;;
11539;SDS011;5826;54.756;9.192;2022-10-28T13:42:30;7.40;;;4.85;;
11539;SDS011;5826;54.756;9.192;2022-10-28T13:56:08;10.38;;;5.28;;
11539;SDS011;5826;54.756;9.192;2022-10-28T13:58:40;7.78;;;4.70;;
11539;SDS011;5826;54.756;9.192;2022-10-28T14:06:48;8.90;;;5.40;;
11539;SDS011;5826;54.756;9.192;2022-10-28T14:09:25;9.85;;;6.22;;
11539;SDS011;5826;54.756;9.192;2022-10-28T14:12:03;6.85;;;4.82;;
11539;SDS011;5826;54.756;9.192;2022-10-28T14:14:30;8.32;;;4.85;;
11539;SDS011;5826;54.756;9.192;2022-10-28T14:16:56;8.00;;;5.18;;
11539;SDS011;5826;54.756;9.192;2022-10-28T14:19:22;10.68;;;5.82;;
11539;SDS011;5826;54.756;9.192;2022-10-28T14:21:58;7.38;;;5.03;;
11539;SDS011;5826;54.756;9.192;2022-10-28T14:24:35;7.55;;;5.57;;
11539;SDS011;5826;54.756;9.192;2022-10-28T14:29:30;10.18;;;5.82;;
11539;SDS011;5826;54.756;9.192;2022-10-28T14:37:46;6.13;;;5.15;;
11539;SDS011;5826;54.756;9.192;2022-10-28T14:40:20;7.70;;;5.03;;
11539;SDS011;5826;54.756;9.192;2022-10-28T14:45:56;13.48;;;7.25;;
11539;SDS011;5826;54.756;9.192;2022-10-28T14:48:40;8.45;;;5.00;;
11539;SDS011;5826;54.756;9.192;2022-10-28T14:51:17;9.32;;;5.25;;
11539;SDS011;5826;54.756;9.192;2022-10-28T14:54:06;8.05;;;5.38;;
11539;SDS011;5826;54.756;9.192;2022-10-28T14:56:37;8.05;;;4.32;;
11539;SDS011;5826;54.756;9.192;2022-10-28T15:02:07;7.50;;;5.57;;
11539;SDS011;5826;54.756;9.192;2022-10-28T15:04:43;10.15;;;5.53;;
11539;SDS011;5826;54.756;9.192;2022-10-28T15:07:11;6.82;;;4.40;;
11539;SDS011;5826;54.756;9.192;2022-10-28T15:09:39;8.13;;;5.82;;
11539;SDS011;5826;54.756;9.192;2022-10-28T15:12:08;6.25;;;4.88;;
11539;SDS011;5826;54.756;9.192;2022-10-28T15:14:37;8.38;;;5.70;;
11539;SDS011;5826;54.756;9.192;2022-10-28T15:19:46;8.40;;;5.53;;
11539;SDS011;5826;54.756;9.192;2022-10-28T15:24:54;10.73;;;5.65;;
11539;SDS011;5826;54.756;9.192;2022-10-28T15:27:21;6.03;;;5.18;;
11539;SDS011;5826;54.756;9.192;2022-10-28T15:29:48;9.13;;;6.63;;
11539;SDS011;5826;54.756;9.192;2022-10-28T15:34:46;9.68;;;5.75;;
11539;SDS011;5826;54.756;9.192;2022-10-28T15:37:18;12.45;;;6.32;;
11539;SDS011;5826;54.756;9.192;2022-10-28T15:39:46;6.53;;;5.18;;
11539;SDS011;5826;54.756;9.192;2022-10-28T15:42:30;6.55;;;4.80;;
11539;SDS011;5826;54.756;9.192;2022-10-28T15:45:04;7.22;;;4.85;;
11539;SDS011;5826;54.756;9.192;2022-10-28T15:47:31;8.02;;;5.50;;
11539;SDS011;5826;54.756;9.192;2022-10-28T15:50:04;7.65;;;4.93;;
11539;SDS011;5826;54.756;9.192;2022-10-28T15:52:47;4.95;;;4.28;;
11539;SDS011;5826;54.756;9.192;2022-10-28T15:55:26;7.53;;;4.85;;
11539;SDS011;5826;54.756;9.192;2022-10-28T15:57:54;6.90;;;4.53;;
11539;SDS011;5826;54.756;9.192;2022-10-28T16:00:28;7.13;;;4.35;;
11539;SDS011;5826;54.756;9.192;2022-10-28T16:02:59;9.10;;;5.00;;
11539;SDS011;5826;54.756;9.192;2022-10-28T16:10:49;9.18;;;5.95;;
11539;SDS011;5826;54.756;9.192;2022-10-28T16:13:44;8.48;;;4.88;;
11539;SDS011;5826;54.756;9.192;2022-10-28T16:16:11;7.63;;;4.38;;
11539;SDS011;5826;54.756;9.192;2022-10-28T16:18:42;9.32;;;4.60;;
11539;SDS011;5826;54.756;9.192;2022-10-28T16:21:23;8.95;;;5.88;;
11539;SDS011;5826;54.756;9.192;2022-10-28T16:23:50;9.82;;;5.40;;
11539;SDS011;5826;54.756;9.192;2022-10-28T16:26:22;10.52;;;5.00;;
11539;SDS011;5826;54.756;9.192;2022-10-28T16:28:51;10.70;;;6.65;;
11539;SDS011;5826;54.756;9.192;2022-10-28T16:31:17;8.60;;;5.32;;
11539;SDS011;5826;54.756;9.192;2022-10-28T16:33:44;11.82;;;7.18;;
11539;SDS011;5826;54.756;9.192;2022-10-28T16:36:10;14.65;;;6.13;;
11539;SDS011;5826;54.756;9.192;2022-10-28T16:38:36;11.13;;;6.03;;
11539;SDS011;5826;54.756;9.192;2022-10-28T16:41:03;8.27;;;5.55;;
11539;SDS011;5826;54.756;9.192;2022-10-28T16:43:30;9.48;;;5.30;;
11539;SDS011;5826;54.756;9.192;2022-10-28T16:45:56;14.10;;;7.05;;
11539;SDS011;5826;54.756;9.192;2022-10-28T16:48:24;9.48;;;6.30;;
11539;SDS011;5826;54.756;9.192;2022-10-28T16:50:56;10.60;;;5.70;;
11539;SDS011;5826;54.756;9.192;2022-10-28T16:53:24;8.25;;;5.80;;
11539;SDS011;5826;54.756;9.192;2022-10-28T16:55:50;11.15;;;5.07;;
11539;SDS011;5826;54.756;9.192;2022-10-28T16:58:17;8.15;;;5.57;;
11539;SDS011;5826;54.756;9.192;2022-10-28T17:00:42;7.15;;;5.05;;
11539;SDS011;5826;54.756;9.192;2022-10-28T17:03:11;10.18;;;5.20;;
11539;SDS011;5826;54.756;9.192;2022-10-28T17:05:40;7.53;;;5.35;;
11539;SDS011;5826;54.756;9.192;2022-10-28T17:08:07;10.75;;;5.47;;
11539;SDS011;5826;54.756;9.192;2022-10-28T17:10:34;7.07;;;4.57;;
11539;SDS011;5826;54.756;9.192;2022-10-28T17:12:59;8.48;;;4.43;;
11539;SDS011;5826;54.756;9.192;2022-10-28T17:15:25;9.25;;;6.15;;
11539;SDS011;5826;54.756;9.192;2022-10-28T17:17:50;9.30;;;5.30;;
11539;SDS011;5826;54.756;9.192;2022-10-28T17:20:17;10.27;;;5.75;;
11539;SDS011;5826;54.756;9.192;2022-10-28T17:22:43;8.57;;;5.15;;
11539;SDS011;5826;54.756;9.192;2022-10-28T17:25:09;7.60;;;5.07;;
11539;SDS011;5826;54.756;9.192;2022-10-28T17:27:35;15.82;;;7.20;;
11539;SDS011;5826;54.756;9.192;2022-10-28T17:30:00;10.27;;;5.70;;
11539;SDS011;5826;54.756;9.192;2022-10-28T17:32:26;9.35;;;6.22;;
11539;SDS011;5826;54.756;9.192;2022-10-28T17:34:51;10.05;;;5.95;;
11539;SDS011;5826;54.756;9.192;2022-10-28T17:37:17;10.57;;;5.68;;
11539;SDS011;5826;54.756;9.192;2022-10-28T17:39:42;11.88;;;6.95;;
11539;SDS011;5826;54.756;9.192;2022-10-28T17:42:08;7.78;;;5.65;;